createdAt,value
2023-07-03T00:01:18.262Z,65.02
2023-07-03T00:03:44.809Z,65.12
2023-07-03T00:06:11.546Z,64.96
2023-07-03T00:08:38.057Z,64.71
2023-07-03T00:11:06.164Z,64.97
2023-07-03T00:13:32.975Z,64.79
2023-07-03T00:16:01.370Z,64.97
2023-07-03T00:18:29.711Z,65.15
2023-07-03T00:20:56.905Z,65.07
2023-07-03T00:23:24.963Z,65.06
2023-07-03T00:25:52.541Z,65.28
2023-07-03T00:28:19.859Z,65.38
2023-07-03T00:30:46.617Z,65.25
2023-07-03T00:33:13.539Z,65.44
2023-07-03T00:35:40.534Z,65.32
2023-07-03T00:38:07.744Z,65.69
2023-07-03T00:40:34.511Z,65.63
2023-07-03T00:43:01.941Z,65.59
2023-07-03T00:45:28.701Z,65.68
2023-07-03T00:47:55.680Z,65.81
2023-07-03T00:50:22.573Z,65.70
2023-07-03T00:52:57.962Z,65.80
2023-07-03T00:55:24.430Z,65.40
2023-07-03T00:57:51.608Z,65.28
2023-07-03T01:00:19.713Z,65.45
2023-07-03T01:03:06.772Z,65.65
2023-07-03T01:05:41.186Z,65.58
2023-07-03T01:08:07.747Z,65.71
2023-07-03T01:10:34.651Z,65.78
2023-07-03T01:13:06.200Z,66.06
2023-07-03T01:15:37.867Z,66.21
2023-07-03T01:18:07.428Z,66.50
2023-07-03T01:20:40.532Z,66.48
2023-07-03T01:23:27.751Z,67.04
2023-07-03T01:25:56.448Z,67.09
2023-07-03T01:28:25.009Z,67.60
2023-07-03T01:30:54.238Z,67.90
2023-07-03T01:33:26.352Z,67.82
2023-07-03T01:35:55.080Z,68.44
2023-07-03T01:38:22.747Z,68.65
2023-07-03T01:40:49.581Z,68.57
2023-07-03T01:43:16.344Z,68.58
2023-07-03T01:45:48.454Z,68.91
2023-07-03T01:48:16.633Z,69.45
2023-07-03T01:50:45.551Z,69.33
2023-07-03T01:53:33.655Z,69.42
2023-07-03T01:56:10.571Z,69.51
2023-07-03T01:58:47.544Z,69.35
2023-07-03T02:01:21.676Z,69.26
2023-07-03T02:03:55.155Z,68.76
2023-07-03T02:06:29.295Z,68.99
2023-07-03T02:08:56.644Z,68.98
2023-07-03T02:11:24.632Z,69.01
2023-07-03T02:13:51.141Z,68.40
2023-07-03T02:16:17.662Z,68.00
2023-07-03T02:18:44.742Z,67.30
2023-07-03T02:21:11.248Z,66.39
2023-07-03T02:23:37.697Z,66.36
2023-07-03T02:26:04.225Z,65.67
2023-07-03T02:28:30.742Z,64.49
2023-07-03T02:30:57.463Z,63.27
2023-07-03T02:33:24.072Z,61.40
2023-07-03T02:35:50.653Z,61.66
2023-07-03T02:38:17.437Z,58.94
2023-07-03T02:40:45.265Z,59.62
2023-07-03T02:43:11.688Z,58.62
2023-07-03T02:45:41.717Z,57.37
2023-07-03T02:48:10.302Z,56.71
2023-07-03T02:50:36.775Z,55.55
2023-07-03T02:53:03.478Z,55.75
2023-07-03T02:55:29.933Z,54.19
2023-07-03T02:57:56.773Z,52.75
2023-07-03T03:00:23.228Z,52.85
2023-07-03T03:02:49.812Z,51.79
2023-07-03T03:05:16.586Z,52.74
2023-07-03T03:07:43.087Z,52.68
2023-07-03T03:10:10.258Z,52.08
2023-07-03T03:12:36.734Z,52.40
2023-07-03T03:15:06.520Z,51.90
2023-07-03T03:17:33.102Z,51.70
2023-07-03T03:20:00.246Z,51.70
2023-07-03T03:22:26.856Z,51.86
2023-07-03T03:24:53.377Z,51.57
2023-07-03T03:27:19.830Z,52.03
2023-07-03T03:29:47.195Z,51.59
2023-07-03T03:32:13.680Z,51.64
2023-07-03T03:34:40.185Z,51.94
2023-07-03T03:37:06.739Z,51.93
2023-07-03T03:39:33.168Z,52.06
2023-07-03T03:41:59.664Z,51.81
2023-07-03T03:44:26.376Z,51.62
2023-07-03T03:46:54.037Z,51.97
2023-07-03T03:49:20.949Z,51.89
2023-07-03T03:51:47.386Z,51.87
2023-07-03T03:54:13.871Z,51.82
2023-07-03T03:56:40.303Z,51.51
2023-07-03T03:59:06.729Z,51.49
2023-07-03T04:01:34.381Z,51.61
2023-07-03T04:04:01.483Z,51.76
2023-07-03T04:06:28.224Z,52.15
2023-07-03T04:08:54.764Z,52.19
2023-07-03T04:11:21.421Z,52.12
2023-07-03T04:13:48.012Z,52.37
2023-07-03T04:16:14.731Z,52.50
2023-07-03T04:18:41.932Z,52.58
2023-07-03T04:21:08.545Z,52.76
2023-07-03T04:23:35.009Z,53.11
2023-07-03T04:26:03.754Z,53.29
2023-07-03T04:28:30.397Z,53.43
2023-07-03T04:30:56.841Z,53.44
2023-07-03T04:33:23.333Z,53.93
2023-07-03T04:35:50.203Z,53.72
2023-07-03T04:38:20.179Z,53.90
2023-07-03T04:40:46.917Z,53.71
2023-07-03T04:43:13.578Z,53.71
2023-07-03T04:45:45.566Z,53.94
2023-07-03T04:48:12.597Z,53.45
2023-07-03T04:50:39.037Z,53.62
2023-07-03T04:53:05.533Z,53.50
2023-07-03T04:55:34.173Z,53.55
2023-07-03T04:58:03.085Z,53.54
2023-07-03T05:00:29.544Z,53.80
2023-07-03T05:03:00.668Z,53.68
2023-07-03T05:05:27.919Z,53.63
2023-07-03T05:07:56.455Z,53.78
2023-07-03T05:10:25.546Z,53.93
2023-07-03T05:12:52.551Z,53.99
2023-07-03T05:15:20.905Z,53.98
2023-07-03T05:17:51.969Z,53.87
2023-07-03T05:20:20.055Z,55.09
2023-07-03T05:22:46.570Z,57.10
2023-07-03T05:25:14.516Z,53.91
2023-07-03T05:27:41.148Z,54.47
2023-07-03T05:30:09.052Z,56.50
2023-07-03T05:32:35.913Z,55.99
2023-07-03T05:35:04.538Z,56.05
2023-07-03T05:37:31.836Z,55.57
2023-07-03T05:39:58.719Z,55.83
2023-07-03T05:42:25.582Z,53.85
2023-07-03T05:44:52.092Z,54.70
2023-07-03T05:47:18.948Z,54.80
2023-07-03T05:49:45.467Z,54.86
2023-07-03T05:52:12.614Z,54.75
2023-07-03T05:54:39.423Z,54.08
2023-07-03T05:57:08.580Z,55.45
2023-07-03T05:59:36.478Z,54.32
2023-07-03T06:02:05.744Z,54.65
2023-07-03T06:04:34.283Z,55.72
2023-07-03T06:07:01.960Z,54.87
2023-07-03T06:09:29.617Z,55.16
2023-07-03T06:11:59.995Z,54.76
2023-07-03T06:14:29.160Z,55.33
2023-07-03T06:16:56.221Z,53.98
2023-07-03T06:19:22.738Z,54.93
2023-07-03T06:21:49.301Z,54.53
2023-07-03T06:24:16.481Z,54.23
2023-07-03T06:26:44.632Z,54.26
2023-07-03T06:29:14.128Z,55.10
2023-07-03T06:31:41.543Z,54.59
2023-07-03T06:34:08.367Z,54.70
2023-07-03T06:36:36.006Z,54.09
2023-07-03T06:39:06.060Z,52.92
2023-07-03T06:41:35.137Z,53.06
2023-07-03T06:44:02.579Z,53.42
2023-07-03T06:46:29.207Z,54.17
2023-07-03T06:48:56.812Z,52.64
2023-07-03T06:51:23.710Z,52.97
2023-07-03T06:53:50.190Z,52.70
2023-07-03T06:56:16.692Z,52.82
2023-07-03T06:58:43.407Z,53.02
2023-07-03T07:01:12.732Z,52.19
2023-07-03T07:03:40.239Z,52.42
2023-07-03T07:06:18.017Z,52.56
2023-07-03T07:08:45.474Z,53.38
2023-07-03T07:11:14.460Z,52.75
2023-07-03T07:13:43.625Z,52.58
2023-07-03T07:16:33.707Z,52.01
2023-07-03T07:19:04.355Z,51.72
2023-07-03T07:21:33.451Z,52.14
2023-07-03T07:24:03.346Z,52.19
2023-07-03T07:26:34.990Z,51.61
2023-07-03T07:29:02.156Z,52.70
2023-07-03T07:31:29.464Z,52.50
2023-07-03T07:33:56.776Z,53.03
2023-07-03T07:36:25.205Z,52.94
2023-07-03T07:38:56.394Z,51.22
2023-07-03T07:41:25.995Z,50.87
2023-07-03T07:43:54.027Z,50.11
2023-07-03T07:46:21.461Z,50.61
2023-07-03T07:48:48.562Z,50.34
2023-07-03T07:51:15.339Z,50.84
2023-07-03T07:53:41.859Z,51.03
2023-07-03T07:56:09.812Z,51.52
2023-07-03T07:58:36.968Z,51.75
2023-07-03T08:01:04.433Z,51.93
2023-07-03T08:03:31.155Z,52.01
2023-07-03T08:06:02.766Z,52.36
2023-07-03T08:08:31.830Z,52.45
2023-07-03T08:11:00.796Z,52.38
2023-07-03T08:13:29.702Z,52.10
2023-07-03T08:15:56.176Z,51.77
2023-07-03T08:18:24.792Z,51.58
2023-07-03T08:20:51.862Z,51.29
2023-07-03T08:23:18.538Z,51.11
2023-07-03T08:25:49.695Z,51.36
2023-07-03T08:28:16.468Z,51.01
2023-07-03T08:30:43.268Z,50.05
2023-07-03T08:33:09.905Z,49.30
2023-07-03T08:38:05.724Z,49.88
2023-07-03T08:40:32.716Z,50.22
2023-07-03T08:43:01.710Z,49.74
2023-07-03T08:45:47.761Z,49.81
2023-07-03T08:48:23.433Z,49.76
2023-07-03T08:50:55.095Z,49.55
2023-07-03T08:53:27.575Z,49.81
2023-07-03T08:56:16.054Z,49.67
2023-07-03T08:58:42.845Z,49.17
2023-07-03T09:01:21.977Z,48.90
2023-07-03T09:04:22.426Z,48.91
2023-07-03T09:06:52.129Z,49.43
2023-07-03T09:09:38.283Z,49.81
2023-07-03T09:12:14.729Z,48.48
2023-07-03T09:14:46.627Z,47.72
2023-07-03T09:17:14.286Z,46.42
2023-07-03T09:19:46.003Z,46.49
2023-07-03T09:22:28.744Z,46.61
2023-07-03T09:24:59.694Z,46.17
2023-07-03T09:27:28.527Z,46.61
2023-07-03T09:30:04.922Z,46.71
2023-07-03T09:32:32.866Z,47.58
2023-07-03T09:35:16.925Z,47.77
2023-07-03T09:37:52.933Z,47.94
2023-07-03T09:40:27.164Z,47.16
2023-07-03T09:42:54.519Z,47.14
2023-07-03T09:45:23.827Z,46.77
2023-07-03T09:47:54.649Z,47.29
2023-07-03T09:50:32.433Z,47.32
2023-07-03T09:53:08.143Z,47.11
2023-07-03T09:55:36.349Z,47.14
2023-07-03T09:58:12.317Z,47.86
2023-07-03T10:00:49.175Z,48.64
2023-07-03T10:08:50.445Z,51.68
2023-07-03T10:11:26.813Z,52.25
2023-07-03T10:13:53.973Z,51.53
2023-07-03T10:16:23.647Z,50.99
2023-07-03T10:18:54.365Z,50.52
2023-07-03T10:21:22.846Z,49.76
2023-07-03T10:23:50.832Z,49.97
2023-07-03T10:26:49.019Z,50.29
2023-07-03T10:29:27.344Z,50.54
2023-07-03T10:32:00.575Z,49.62
2023-07-03T10:34:38.386Z,49.40
2023-07-03T10:37:07.284Z,47.53
2023-07-03T10:39:50.103Z,47.36
2023-07-03T10:42:23.237Z,46.81
2023-07-03T10:44:57.128Z,47.13
2023-07-03T10:47:31.756Z,47.64
2023-07-03T10:49:58.404Z,48.13
2023-07-03T10:52:37.120Z,48.45
2023-07-03T10:55:11.266Z,49.18
2023-07-03T10:58:03.968Z,49.76
2023-07-03T11:00:59.172Z,50.00
2023-07-03T11:04:15.643Z,50.06
2023-07-03T11:07:05.871Z,49.23
2023-07-03T11:09:53.621Z,49.92
2023-07-03T11:12:43.776Z,50.34
2023-07-03T11:15:51.780Z,50.78
2023-07-03T11:24:32.709Z,50.32
2023-07-03T11:29:54.437Z,50.43
2023-07-03T11:32:21.602Z,50.24
2023-07-03T11:40:30.762Z,47.80
2023-07-03T11:45:39.001Z,48.26
2023-07-03T11:48:19.484Z,48.94
2023-07-03T11:50:57.090Z,49.05
2023-07-03T11:53:45.242Z,49.37
2023-07-03T11:56:14.847Z,49.16
2023-07-03T11:58:44.651Z,49.12
2023-07-03T12:01:26.888Z,49.01
2023-07-03T12:03:58.857Z,47.45
2023-07-03T12:06:40.460Z,46.31
2023-07-03T12:09:19.965Z,46.39
2023-07-03T12:12:01.654Z,46.25
2023-07-03T12:14:40.310Z,46.42
2023-07-03T12:17:19.648Z,46.20
2023-07-03T12:19:47.622Z,45.99
2023-07-03T12:22:21.446Z,45.75
2023-07-03T12:24:48.049Z,46.16
2023-07-03T12:27:15.582Z,46.33
2023-07-03T12:29:48.178Z,46.65
2023-07-03T12:32:27.942Z,47.24
2023-07-03T12:34:54.953Z,44.88
2023-07-03T12:37:25.197Z,44.25
2023-07-03T12:39:52.894Z,44.14
2023-07-03T12:42:25.782Z,44.87
2023-07-03T12:44:53.594Z,45.11
2023-07-03T12:47:21.844Z,45.68
2023-07-03T12:49:56.569Z,46.18
2023-07-03T12:52:25.102Z,46.77
2023-07-03T12:54:58.613Z,47.04
2023-07-03T12:57:35.540Z,47.43
2023-07-03T13:00:03.080Z,47.87
2023-07-03T13:02:32.298Z,48.19
2023-07-03T13:05:02.357Z,48.36
2023-07-03T13:07:29.810Z,49.00
2023-07-03T13:09:58.647Z,49.04
2023-07-03T13:12:27.689Z,49.60
2023-07-03T13:15:08.335Z,50.26
2023-07-03T13:17:38.459Z,50.27
2023-07-03T13:20:27.834Z,50.46
2023-07-03T13:23:07.127Z,50.67
2023-07-03T13:25:37.520Z,50.74
2023-07-03T13:28:25.984Z,50.55
2023-07-03T13:31:04.582Z,51.10
2023-07-03T13:33:31.251Z,49.91
2023-07-03T13:35:57.737Z,47.84
2023-07-03T13:38:24.154Z,47.53
2023-07-03T13:40:52.941Z,47.88
2023-07-03T13:43:25.311Z,47.95
2023-07-03T13:45:53.737Z,48.19
2023-07-03T13:48:20.260Z,48.41
2023-07-03T13:50:50.432Z,48.62
2023-07-03T13:53:17.180Z,48.97
2023-07-03T13:55:43.631Z,49.17
2023-07-03T13:58:12.038Z,48.97
2023-07-03T14:00:38.510Z,48.56
2023-07-03T14:03:05.389Z,47.78
2023-07-03T14:05:31.895Z,47.04
2023-07-03T14:07:58.924Z,46.96
2023-07-03T14:10:25.799Z,45.86
2023-07-03T14:12:53.690Z,45.08
2023-07-03T14:15:26.733Z,44.39
2023-07-03T14:17:54.316Z,43.86
2023-07-03T14:20:21.710Z,43.06
2023-07-03T14:22:49.561Z,42.46
2023-07-03T14:25:17.461Z,42.82
2023-07-03T14:27:44.102Z,42.99
2023-07-03T14:30:12.450Z,43.18
2023-07-03T14:32:51.455Z,43.24
2023-07-03T14:35:21.865Z,43.63
2023-07-03T14:37:48.410Z,44.55
2023-07-03T14:40:16.768Z,45.17
2023-07-03T14:42:44.715Z,45.69
2023-07-03T14:45:11.366Z,45.97
2023-07-03T14:47:38.005Z,46.17
2023-07-03T14:50:05.288Z,46.36
2023-07-03T14:52:50.400Z,46.77
2023-07-03T14:55:18.059Z,46.68
2023-07-03T14:57:46.262Z,46.09
2023-07-03T15:00:13.597Z,45.45
2023-07-03T15:02:41.891Z,45.49
2023-07-03T15:05:10.256Z,45.06
2023-07-03T15:07:36.965Z,44.52
2023-07-03T15:10:06.465Z,45.06
2023-07-03T15:12:32.985Z,46.06
2023-07-03T15:14:59.411Z,46.99
2023-07-03T15:17:26.029Z,47.30
2023-07-03T15:19:54.426Z,47.76
2023-07-03T15:22:20.973Z,48.11
2023-07-03T15:24:50.640Z,48.50
2023-07-03T15:27:17.183Z,48.71
2023-07-03T15:29:43.655Z,48.91
2023-07-03T15:32:10.100Z,48.91
2023-07-03T15:34:36.555Z,49.03
2023-07-03T15:37:03.120Z,49.44
2023-07-03T15:39:30.049Z,49.60
2023-07-03T15:41:56.476Z,49.37
2023-07-03T15:44:22.912Z,48.75
2023-07-03T15:46:49.487Z,47.33
2023-07-03T15:49:15.976Z,46.02
2023-07-03T15:51:45.443Z,45.59
2023-07-03T15:54:11.893Z,45.10
2023-07-03T15:56:38.353Z,45.33
2023-07-03T15:59:05.387Z,44.95
2023-07-03T16:01:31.898Z,44.70
2023-07-03T16:04:02.039Z,44.63
2023-07-03T16:06:34.258Z,43.66
2023-07-03T16:09:00.931Z,43.93
2023-07-03T16:11:27.763Z,43.15
2023-07-03T16:13:54.687Z,43.79
2023-07-03T16:16:23.709Z,43.13
2023-07-03T16:18:54.360Z,43.61
2023-07-03T16:21:23.319Z,43.72
2023-07-03T16:23:53.367Z,43.43
2023-07-03T16:26:20.714Z,43.77
2023-07-03T16:28:47.585Z,43.79
2023-07-03T16:31:16.949Z,43.64
2023-07-03T16:33:45.859Z,43.58
2023-07-03T16:36:15.009Z,43.58
2023-07-03T16:38:47.906Z,44.37
2023-07-03T16:41:15.329Z,43.63
2023-07-03T16:43:44.639Z,43.53
2023-07-03T16:46:14.400Z,44.05
2023-07-03T16:48:41.087Z,44.43
2023-07-03T16:51:09.042Z,45.11
2023-07-03T16:53:38.088Z,45.39
2023-07-03T16:56:07.084Z,45.95
2023-07-03T16:58:34.578Z,46.14
2023-07-03T17:01:09.158Z,46.48
2023-07-03T17:03:36.477Z,46.58
2023-07-03T17:06:04.975Z,47.05
2023-07-03T17:08:31.588Z,47.54
2023-07-03T17:10:59.146Z,47.50
2023-07-03T17:13:25.609Z,47.72
2023-07-03T17:15:52.371Z,46.54
2023-07-03T17:18:19.330Z,46.31
2023-07-03T17:20:45.773Z,46.30
2023-07-03T17:23:12.975Z,46.10
2023-07-03T17:25:40.078Z,46.40
2023-07-03T17:28:06.983Z,46.86
2023-07-03T17:30:33.714Z,47.71
2023-07-03T17:33:00.197Z,46.62
2023-07-03T17:35:26.809Z,47.64
2023-07-03T17:37:53.491Z,47.48
2023-07-03T17:40:19.951Z,47.72
2023-07-03T17:42:46.423Z,47.22
2023-07-03T17:45:12.849Z,47.23
2023-07-03T17:47:39.537Z,47.31
2023-07-03T17:50:06.796Z,47.22
2023-07-03T17:52:33.235Z,46.07
2023-07-03T17:54:59.728Z,46.41
2023-07-03T17:57:26.210Z,47.12
2023-07-03T17:59:52.868Z,47.06
2023-07-03T18:02:19.359Z,47.30
2023-07-03T18:04:45.817Z,47.70
2023-07-03T18:07:13.677Z,47.77
2023-07-03T18:09:40.199Z,48.98
2023-07-03T18:12:07.147Z,49.80
2023-07-03T18:14:33.803Z,50.36
2023-07-03T18:17:00.240Z,51.12
2023-07-03T18:19:26.701Z,51.79
2023-07-03T18:21:53.217Z,51.84
2023-07-03T18:24:19.740Z,51.16
2023-07-03T18:26:46.253Z,50.19
2023-07-03T18:29:12.684Z,49.18
2023-07-03T18:31:39.409Z,49.33
2023-07-03T18:34:05.998Z,49.25
2023-07-03T18:36:33.779Z,50.44
2023-07-03T18:39:00.557Z,50.90
2023-07-03T18:41:27.190Z,51.46
2023-07-03T18:43:53.640Z,52.74
2023-07-03T18:46:20.150Z,54.63
2023-07-03T18:48:46.766Z,54.49
2023-07-03T18:51:14.859Z,55.79
2023-07-03T18:53:41.628Z,55.39
2023-07-03T18:56:08.186Z,56.82
2023-07-03T18:58:34.625Z,59.06
2023-07-03T19:01:01.137Z,60.31
2023-07-03T19:03:28.605Z,62.32
2023-07-03T19:06:00.278Z,65.00
2023-07-03T19:08:27.360Z,66.49
2023-07-03T19:10:53.812Z,67.74
2023-07-03T19:13:20.565Z,69.15
2023-07-03T19:15:47.299Z,70.27
2023-07-03T19:18:14.909Z,71.06
2023-07-03T19:20:41.734Z,71.76
2023-07-03T19:23:09.003Z,72.04
2023-07-03T19:25:35.443Z,72.69
2023-07-03T19:28:02.487Z,72.84
2023-07-03T19:30:28.986Z,73.18
2023-07-03T19:32:55.429Z,73.50
2023-07-03T19:35:21.846Z,73.19
2023-07-03T19:37:50.182Z,73.14
2023-07-03T19:40:16.727Z,73.16
2023-07-03T19:42:43.446Z,72.97
2023-07-03T19:45:10.557Z,73.52
2023-07-03T19:47:37.633Z,73.08
2023-07-03T19:50:10.589Z,72.80
2023-07-03T19:52:37.831Z,72.98
2023-07-03T19:55:04.601Z,73.50
2023-07-03T19:57:31.528Z,72.86
2023-07-03T19:59:57.959Z,73.10
2023-07-03T20:02:24.577Z,73.57
2023-07-03T20:04:51.608Z,73.99
2023-07-03T20:07:18.120Z,74.51
2023-07-03T20:09:44.773Z,74.80
2023-07-03T20:12:11.306Z,74.77
2023-07-03T20:14:37.816Z,73.43
2023-07-03T20:17:04.894Z,73.25
2023-07-03T20:19:31.572Z,73.87
2023-07-03T20:21:58.240Z,74.37
2023-07-03T20:24:24.952Z,74.73
2023-07-03T20:26:52.870Z,75.31
2023-07-03T20:29:19.977Z,75.25
2023-07-03T20:31:46.596Z,75.68
2023-07-03T20:34:13.062Z,75.73
2023-07-03T20:36:39.531Z,76.00
2023-07-03T20:39:06.297Z,76.03
2023-07-03T20:41:33.172Z,76.03
2023-07-03T20:44:05.193Z,75.58
2023-07-03T20:46:33.118Z,75.93
2023-07-03T20:49:00.901Z,75.80
2023-07-03T20:51:32.815Z,75.71
2023-07-03T20:53:59.978Z,74.79
2023-07-03T20:56:30.010Z,75.02
2023-07-03T20:58:58.868Z,74.86
2023-07-03T21:01:28.448Z,75.04
2023-07-03T21:03:56.220Z,75.46
2023-07-03T21:06:25.309Z,76.01
2023-07-03T21:08:52.404Z,76.24
2023-07-03T21:11:24.743Z,76.46
2023-07-03T21:13:53.428Z,77.06
2023-07-03T21:16:22.831Z,77.22
2023-07-03T21:18:50.174Z,77.33
2023-07-03T21:21:19.152Z,76.96
2023-07-03T21:23:46.179Z,77.65
2023-07-03T21:26:14.867Z,77.32
2023-07-03T21:28:41.814Z,77.66
2023-07-03T21:31:12.709Z,77.54
2023-07-03T21:33:40.295Z,77.99
2023-07-03T21:36:09.203Z,77.58
2023-07-03T21:38:36.582Z,77.49
2023-07-03T21:41:03.408Z,77.21
2023-07-03T21:43:30.257Z,76.58
2023-07-03T21:46:02.299Z,74.99
2023-07-03T21:48:29.180Z,75.33
2023-07-03T21:50:55.859Z,75.52
2023-07-03T21:53:22.363Z,75.49
2023-07-03T21:55:48.974Z,75.60
2023-07-03T21:58:15.456Z,75.22
2023-07-03T22:00:41.942Z,75.37
2023-07-03T22:03:08.461Z,75.21
2023-07-03T22:05:34.927Z,74.56
2023-07-03T22:08:01.387Z,74.79
2023-07-03T22:10:28.001Z,74.84
2023-07-03T22:12:56.342Z,75.16
2023-07-03T22:15:22.797Z,75.06
2023-07-03T22:17:49.302Z,75.25
2023-07-03T22:20:15.910Z,75.41
2023-07-03T22:22:42.789Z,75.50
2023-07-03T22:25:09.582Z,75.65
2023-07-03T22:27:36.063Z,76.13
2023-07-03T22:30:02.724Z,75.64
2023-07-03T22:32:30.672Z,75.86
2023-07-03T22:34:57.263Z,75.98
2023-07-03T22:37:23.737Z,76.51
2023-07-03T22:39:50.287Z,75.75
2023-07-03T22:42:16.748Z,76.13
2023-07-03T22:44:43.330Z,76.05
2023-07-03T22:47:09.901Z,76.14
2023-07-03T22:49:36.406Z,76.38
2023-07-03T22:52:03.657Z,76.26
2023-07-03T22:54:30.190Z,76.58
2023-07-03T22:56:56.619Z,76.49
2023-07-03T22:59:23.047Z,76.67
2023-07-03T23:01:53.127Z,76.69
2023-07-03T23:04:19.972Z,76.89
2023-07-03T23:06:47.030Z,76.84
2023-07-03T23:09:14.240Z,76.81
2023-07-03T23:11:40.819Z,77.00
2023-07-03T23:14:07.267Z,76.99
2023-07-03T23:16:33.701Z,77.01
2023-07-03T23:19:00.551Z,77.13
2023-07-03T23:21:27.020Z,76.94
2023-07-03T23:23:56.689Z,76.99
2023-07-03T23:26:25.684Z,77.55
2023-07-03T23:28:52.382Z,77.26
2023-07-03T23:31:19.145Z,77.14
2023-07-03T23:33:48.916Z,77.32
2023-07-03T23:36:16.090Z,77.46
2023-07-03T23:38:45.679Z,77.36
2023-07-03T23:41:12.660Z,77.61
2023-07-03T23:43:40.610Z,77.60
2023-07-03T23:46:08.804Z,77.53
2023-07-03T23:48:36.217Z,77.97
2023-07-03T23:51:05.337Z,77.92
2023-07-03T23:53:37.545Z,77.84
2023-07-03T23:56:06.958Z,77.92
2023-07-03T23:58:35.228Z,78.17
